Aérodrome :
LOGIN :

S'inscrire | Disclaimer

   EN    FR    IT 

 










Légende :    VFR   VFR Marginal   IFR   IFR Intensif   IFR Très Intensif
Visi : 
Plafond : 
>= 8 km
>= 3000ft
5 à 8 km
1000 à 3000 ft
1500m à 5 km
500 à 1000 ft
800 à 1500m
200 à 500 ft
< 800m
< 200 ft
Symboles :   Orages  Brouillard  Fortes neiges  Fortes précipitations  Vent > 20 kt
SIGMETs :   Divers  Orages  Givrage  Turbulence  Onde Orograph.  Cendres Volcan.






- Altitude de l'aérodrome : 1558 ft
- Code IATA : IOA


LGIO - Ioannina

DERNIER METAR :
  • 240620Z 11002KT 9999 FEW020 12/09 Q1009

METARs EXPIRÉS :
  • 240550Z AUTO VRB01KT //// // ////// 11/09 Q1009 RE//
  • 240520Z AUTO VRB02KT //// // ////// 09/09 Q1009 RE//
  • 240450Z AUTO 00000KT //// // ////// 09/09 Q1009 RE//
  • 240420Z AUTO VRB02KT //// // ////// 06/06 Q1009 RE//
  • 240350Z AUTO VRB03KT //// // ////// 06/06 Q1009 RE//
  • 240320Z AUTO VRB01KT //// // ////// 07/07 Q1009 RE//
  • 240250Z AUTO VRB01KT //// // ////// 07/07 Q1009 RE//
  • 240220Z AUTO VRB02KT //// // ////// 08/08 Q1008 RE//
  • 240150Z AUTO VRB02KT //// // ////// 09/09 Q1008 RE//

TAF TAF LGIO
Valide du 24 à 06h jusqu'au 24 à 15h UTC


240500Z 2406/2415 VRB03KT 9999 FEW025
PROB30 2406/2408 3000 BR SCT005



MET'MAP, la Météo Aéronautique d'un coup d'oeil ! - Copyright ORBIFLY Décembre 2007 - Disclaimer

ORBIFLY MET'MAP TEAM :

Programmation & Développement : Alexandra Zaïnal
Sur une idée originale de : Baudouin d'Aumeries
Soutien technique & logistique : Manuel Goepfert
Assistance : Marc-Olivier Méhu




SOURCES & CREDITS :

   NOAA